sensor_id;sensor_type;location;lat;lon;timestamp;P1;durP1;ratioP1;P2;durP2;ratioP2
31798;SDS011;18374;51.136;3.502;2022-11-24T00:01:24;14.57;;;2.30;;
31798;SDS011;18374;51.136;3.502;2022-11-24T00:06:25;11.38;;;2.05;;
31798;SDS011;18374;51.136;3.502;2022-11-24T00:08:54;17.52;;;2.53;;
31798;SDS011;18374;51.136;3.502;2022-11-24T00:11:24;17.95;;;2.58;;
31798;SDS011;18374;51.136;3.502;2022-11-24T00:13:54;14.75;;;2.70;;
31798;SDS011;18374;51.136;3.502;2022-11-24T00:16:24;18.33;;;2.30;;
31798;SDS011;18374;51.136;3.502;2022-11-24T00:18:57;15.35;;;2.92;;
31798;SDS011;18374;51.136;3.502;2022-11-24T00:21:27;11.60;;;1.98;;
31798;SDS011;18374;51.136;3.502;2022-11-24T00:23:57;13.98;;;2.25;;
31798;SDS011;18374;51.136;3.502;2022-11-24T00:26:29;17.30;;;2.58;;
31798;SDS011;18374;51.136;3.502;2022-11-24T00:28:59;12.10;;;2.80;;
31798;SDS011;18374;51.136;3.502;2022-11-24T00:34:03;16.00;;;2.67;;
31798;SDS011;18374;51.136;3.502;2022-11-24T00:36:35;11.88;;;2.38;;
31798;SDS011;18374;51.136;3.502;2022-11-24T00:39:04;21.90;;;2.53;;
31798;SDS011;18374;51.136;3.502;2022-11-24T00:41:38;13.65;;;2.70;;
31798;SDS011;18374;51.136;3.502;2022-11-24T00:44:06;18.48;;;2.05;;
31798;SDS011;18374;51.136;3.502;2022-11-24T00:46:35;15.25;;;2.50;;
31798;SDS011;18374;51.136;3.502;2022-11-24T00:49:03;9.48;;;2.53;;
31798;SDS011;18374;51.136;3.502;2022-11-24T00:51:31;21.55;;;2.92;;
31798;SDS011;18374;51.136;3.502;2022-11-24T00:53:59;11.93;;;2.78;;
31798;SDS011;18374;51.136;3.502;2022-11-24T00:56:28;24.10;;;2.88;;
31798;SDS011;18374;51.136;3.502;2022-11-24T00:58:55;14.43;;;2.42;;
31798;SDS011;18374;51.136;3.502;2022-11-24T01:01:24;18.65;;;2.75;;
31798;SDS011;18374;51.136;3.502;2022-11-24T01:03:54;21.27;;;2.45;;
31798;SDS011;18374;51.136;3.502;2022-11-24T01:06:23;16.83;;;2.92;;
31798;SDS011;18374;51.136;3.502;2022-11-24T01:08:52;16.75;;;3.17;;
31798;SDS011;18374;51.136;3.502;2022-11-24T01:11:22;19.20;;;3.20;;
31798;SDS011;18374;51.136;3.502;2022-11-24T01:13:57;13.27;;;2.20;;
31798;SDS011;18374;51.136;3.502;2022-11-24T01:16:27;14.40;;;2.92;;
31798;SDS011;18374;51.136;3.502;2022-11-24T01:19:00;12.02;;;2.53;;
31798;SDS011;18374;51.136;3.502;2022-11-24T01:21:29;21.63;;;3.00;;
31798;SDS011;18374;51.136;3.502;2022-11-24T01:23:57;22.52;;;3.00;;
31798;SDS011;18374;51.136;3.502;2022-11-24T01:26:25;16.92;;;3.28;;
31798;SDS011;18374;51.136;3.502;2022-11-24T01:28:53;19.70;;;3.72;;
31798;SDS011;18374;51.136;3.502;2022-11-24T01:31:25;14.80;;;2.78;;
31798;SDS011;18374;51.136;3.502;2022-11-24T01:33:53;26.85;;;3.55;;
31798;SDS011;18374;51.136;3.502;2022-11-24T01:36:21;29.63;;;3.67;;
31798;SDS011;18374;51.136;3.502;2022-11-24T01:38:50;22.85;;;3.10;;
31798;SDS011;18374;51.136;3.502;2022-11-24T01:41:19;21.80;;;3.42;;
31798;SDS011;18374;51.136;3.502;2022-11-24T01:43:50;18.23;;;2.80;;
31798;SDS011;18374;51.136;3.502;2022-11-24T01:46:23;26.63;;;3.38;;
31798;SDS011;18374;51.136;3.502;2022-11-24T01:49:33;21.92;;;2.80;;
31798;SDS011;18374;51.136;3.502;2022-11-24T01:51:57;16.42;;;3.08;;
31798;SDS011;18374;51.136;3.502;2022-11-24T01:54:47;9.98;;;1.98;;
31798;SDS011;18374;51.136;3.502;2022-11-24T01:57:31;9.60;;;1.80;;
31798;SDS011;18374;51.136;3.502;2022-11-24T02:00:10;7.57;;;1.52;;
31798;SDS011;18374;51.136;3.502;2022-11-24T02:02:40;8.07;;;1.60;;
31798;SDS011;18374;51.136;3.502;2022-11-24T02:05:11;9.70;;;1.63;;
31798;SDS011;18374;51.136;3.502;2022-11-24T02:07:51;9.00;;;1.60;;
31798;SDS011;18374;51.136;3.502;2022-11-24T02:10:22;6.75;;;1.20;;
31798;SDS011;18374;51.136;3.502;2022-11-24T02:12:50;7.45;;;1.35;;
31798;SDS011;18374;51.136;3.502;2022-11-24T02:15:20;5.22;;;1.20;;
31798;SDS011;18374;51.136;3.502;2022-11-24T02:17:49;10.18;;;1.42;;
31798;SDS011;18374;51.136;3.502;2022-11-24T02:20:17;9.27;;;1.02;;
31798;SDS011;18374;51.136;3.502;2022-11-24T02:28:36;8.00;;;0.90;;
31798;SDS011;18374;51.136;3.502;2022-11-24T02:31:04;5.57;;;1.02;;
31798;SDS011;18374;51.136;3.502;2022-11-24T02:33:32;4.00;;;0.73;;
31798;SDS011;18374;51.136;3.502;2022-11-24T02:36:00;2.38;;;0.47;;
31798;SDS011;18374;51.136;3.502;2022-11-24T02:38:29;5.53;;;0.80;;
31798;SDS011;18374;51.136;3.502;2022-11-24T02:41:02;1.77;;;0.40;;
31798;SDS011;18374;51.136;3.502;2022-11-24T02:43:35;1.92;;;0.30;;
31798;SDS011;18374;51.136;3.502;2022-11-24T02:46:08;3.73;;;0.60;;
31798;SDS011;18374;51.136;3.502;2022-11-24T02:48:37;6.18;;;0.57;;
31798;SDS011;18374;51.136;3.502;2022-11-24T02:51:04;2.88;;;0.70;;
31798;SDS011;18374;51.136;3.502;2022-11-24T02:53:32;3.28;;;1.10;;
31798;SDS011;18374;51.136;3.502;2022-11-24T02:56:00;1.00;;;0.47;;
31798;SDS011;18374;51.136;3.502;2022-11-24T02:58:27;3.50;;;0.32;;
31798;SDS011;18374;51.136;3.502;2022-11-24T03:00:55;3.10;;;0.80;;
31798;SDS011;18374;51.136;3.502;2022-11-24T03:03:24;5.07;;;0.80;;
31798;SDS011;18374;51.136;3.502;2022-11-24T03:05:52;4.82;;;0.80;;
31798;SDS011;18374;51.136;3.502;2022-11-24T03:08:20;5.00;;;1.52;;
31798;SDS011;18374;51.136;3.502;2022-11-24T03:10:48;9.05;;;1.38;;
31798;SDS011;18374;51.136;3.502;2022-11-24T03:13:16;4.63;;;1.70;;
31798;SDS011;18374;51.136;3.502;2022-11-24T03:15:43;5.18;;;1.58;;
31798;SDS011;18374;51.136;3.502;2022-11-24T03:18:11;2.33;;;1.58;;
31798;SDS011;18374;51.136;3.502;2022-11-24T03:20:39;3.60;;;1.20;;
31798;SDS011;18374;51.136;3.502;2022-11-24T03:23:06;4.10;;;1.27;;
31798;SDS011;18374;51.136;3.502;2022-11-24T03:25:34;2.75;;;1.48;;
31798;SDS011;18374;51.136;3.502;2022-11-24T03:28:02;3.42;;;1.13;;
31798;SDS011;18374;51.136;3.502;2022-11-24T03:30:29;4.63;;;1.48;;
31798;SDS011;18374;51.136;3.502;2022-11-24T03:32:57;3.88;;;1.35;;
31798;SDS011;18374;51.136;3.502;2022-11-24T03:35:25;3.17;;;1.05;;
31798;SDS011;18374;51.136;3.502;2022-11-24T03:37:52;4.18;;;1.23;;
31798;SDS011;18374;51.136;3.502;2022-11-24T03:40:20;2.30;;;0.90;;
31798;SDS011;18374;51.136;3.502;2022-11-24T03:42:48;7.72;;;1.15;;
31798;SDS011;18374;51.136;3.502;2022-11-24T03:45:15;2.88;;;0.93;;
31798;SDS011;18374;51.136;3.502;2022-11-24T03:48:03;8.38;;;0.85;;
31798;SDS011;18374;51.136;3.502;2022-11-24T03:50:32;4.63;;;1.05;;
31798;SDS011;18374;51.136;3.502;2022-11-24T03:52:59;5.40;;;1.27;;
31798;SDS011;18374;51.136;3.502;2022-11-24T03:55:27;3.88;;;0.68;;
31798;SDS011;18374;51.136;3.502;2022-11-24T03:57:55;6.15;;;1.02;;
31798;SDS011;18374;51.136;3.502;2022-11-24T04:00:22;2.75;;;0.95;;
31798;SDS011;18374;51.136;3.502;2022-11-24T04:02:50;3.85;;;0.90;;
31798;SDS011;18374;51.136;3.502;2022-11-24T04:05:18;3.65;;;0.95;;
31798;SDS011;18374;51.136;3.502;2022-11-24T04:07:46;7.18;;;1.40;;
31798;SDS011;18374;51.136;3.502;2022-11-24T04:10:13;9.27;;;1.08;;
31798;SDS011;18374;51.136;3.502;2022-11-24T04:12:41;2.72;;;1.08;;
31798;SDS011;18374;51.136;3.502;2022-11-24T04:15:13;3.22;;;1.17;;
31798;SDS011;18374;51.136;3.502;2022-11-24T04:17:44;6.18;;;1.45;;
31798;SDS011;18374;51.136;3.502;2022-11-24T04:20:13;6.50;;;1.15;;
31798;SDS011;18374;51.136;3.502;2022-11-24T04:22:42;4.18;;;1.23;;
31798;SDS011;18374;51.136;3.502;2022-11-24T04:25:10;7.10;;;1.42;;
31798;SDS011;18374;51.136;3.502;2022-11-24T04:27:38;8.95;;;1.40;;
31798;SDS011;18374;51.136;3.502;2022-11-24T04:30:06;9.55;;;2.30;;
31798;SDS011;18374;51.136;3.502;2022-11-24T04:32:34;8.00;;;1.67;;
31798;SDS011;18374;51.136;3.502;2022-11-24T04:35:03;4.82;;;1.38;;
31798;SDS011;18374;51.136;3.502;2022-11-24T04:37:31;6.13;;;1.30;;
31798;SDS011;18374;51.136;3.502;2022-11-24T04:40:00;6.40;;;1.13;;
31798;SDS011;18374;51.136;3.502;2022-11-24T04:42:28;9.25;;;1.48;;
31798;SDS011;18374;51.136;3.502;2022-11-24T04:44:55;7.68;;;1.20;;
31798;SDS011;18374;51.136;3.502;2022-11-24T04:47:23;5.05;;;1.48;;
31798;SDS011;18374;51.136;3.502;2022-11-24T04:49:52;3.83;;;1.23;;
31798;SDS011;18374;51.136;3.502;2022-11-24T04:52:21;4.22;;;1.33;;
31798;SDS011;18374;51.136;3.502;2022-11-24T04:54:50;5.75;;;1.52;;
31798;SDS011;18374;51.136;3.502;2022-11-24T04:57:19;7.43;;;1.92;;
31798;SDS011;18374;51.136;3.502;2022-11-24T04:59:50;4.35;;;1.10;;
31798;SDS011;18374;51.136;3.502;2022-11-24T05:02:18;13.57;;;1.38;;
31798;SDS011;18374;51.136;3.502;2022-11-24T05:04:47;5.55;;;1.27;;
31798;SDS011;18374;51.136;3.502;2022-11-24T05:07:15;9.00;;;1.38;;
31798;SDS011;18374;51.136;3.502;2022-11-24T05:09:45;7.78;;;1.27;;
31798;SDS011;18374;51.136;3.502;2022-11-24T05:12:32;11.13;;;1.75;;
31798;SDS011;18374;51.136;3.502;2022-11-24T05:15:00;8.63;;;1.48;;
31798;SDS011;18374;51.136;3.502;2022-11-24T05:17:30;6.88;;;1.45;;
31798;SDS011;18374;51.136;3.502;2022-11-24T05:20:00;7.72;;;1.35;;
31798;SDS011;18374;51.136;3.502;2022-11-24T05:22:28;9.07;;;1.65;;
31798;SDS011;18374;51.136;3.502;2022-11-24T05:24:56;9.50;;;1.50;;
31798;SDS011;18374;51.136;3.502;2022-11-24T05:27:24;4.18;;;1.27;;
31798;SDS011;18374;51.136;3.502;2022-11-24T05:29:51;14.55;;;2.47;;
31798;SDS011;18374;51.136;3.502;2022-11-24T05:32:19;6.97;;;1.30;;
31798;SDS011;18374;51.136;3.502;2022-11-24T05:34:47;8.80;;;1.50;;
31798;SDS011;18374;51.136;3.502;2022-11-24T05:37:14;6.10;;;1.35;;
31798;SDS011;18374;51.136;3.502;2022-11-24T05:39:42;9.63;;;2.05;;
31798;SDS011;18374;51.136;3.502;2022-11-24T05:42:10;8.00;;;1.60;;
31798;SDS011;18374;51.136;3.502;2022-11-24T05:44:56;11.05;;;1.55;;
31798;SDS011;18374;51.136;3.502;2022-11-24T05:47:23;16.83;;;2.15;;
31798;SDS011;18374;51.136;3.502;2022-11-24T05:49:51;8.40;;;1.60;;
31798;SDS011;18374;51.136;3.502;2022-11-24T05:52:19;8.13;;;1.58;;
31798;SDS011;18374;51.136;3.502;2022-11-24T05:54:46;11.57;;;1.67;;
31798;SDS011;18374;51.136;3.502;2022-11-24T05:57:18;9.63;;;1.55;;
31798;SDS011;18374;51.136;3.502;2022-11-24T05:59:45;11.95;;;2.20;;
31798;SDS011;18374;51.136;3.502;2022-11-24T06:02:13;11.10;;;1.63;;
31798;SDS011;18374;51.136;3.502;2022-11-24T06:04:41;9.98;;;1.73;;
31798;SDS011;18374;51.136;3.502;2022-11-24T06:07:09;17.30;;;1.92;;
31798;SDS011;18374;51.136;3.502;2022-11-24T06:09:38;6.00;;;1.27;;
31798;SDS011;18374;51.136;3.502;2022-11-24T06:12:08;13.18;;;1.48;;
31798;SDS011;18374;51.136;3.502;2022-11-24T06:14:38;11.27;;;2.05;;
31798;SDS011;18374;51.136;3.502;2022-11-24T06:17:06;11.45;;;1.73;;
31798;SDS011;18374;51.136;3.502;2022-11-24T06:19:36;12.82;;;1.75;;
31798;SDS011;18374;51.136;3.502;2022-11-24T06:22:08;12.45;;;1.83;;
31798;SDS011;18374;51.136;3.502;2022-11-24T06:24:35;13.38;;;2.25;;
31798;SDS011;18374;51.136;3.502;2022-11-24T06:27:03;9.48;;;2.00;;
31798;SDS011;18374;51.136;3.502;2022-11-24T06:29:30;9.43;;;1.98;;
31798;SDS011;18374;51.136;3.502;2022-11-24T06:31:58;9.27;;;2.08;;
31798;SDS011;18374;51.136;3.502;2022-11-24T06:34:26;9.82;;;2.10;;
31798;SDS011;18374;51.136;3.502;2022-11-24T06:36:53;9.65;;;2.28;;
31798;SDS011;18374;51.136;3.502;2022-11-24T06:39:21;11.65;;;2.10;;
31798;SDS011;18374;51.136;3.502;2022-11-24T06:41:49;16.02;;;2.13;;
31798;SDS011;18374;51.136;3.502;2022-11-24T06:44:17;11.38;;;2.03;;
31798;SDS011;18374;51.136;3.502;2022-11-24T06:46:45;10.65;;;2.50;;
31798;SDS011;18374;51.136;3.502;2022-11-24T06:49:13;8.63;;;2.22;;
31798;SDS011;18374;51.136;3.502;2022-11-24T06:51:40;13.15;;;2.50;;
31798;SDS011;18374;51.136;3.502;2022-11-24T06:54:08;9.75;;;2.70;;
31798;SDS011;18374;51.136;3.502;2022-11-24T06:56:40;16.55;;;2.95;;
31798;SDS011;18374;51.136;3.502;2022-11-24T06:59:13;15.57;;;3.42;;
31798;SDS011;18374;51.136;3.502;2022-11-24T07:01:44;11.02;;;3.25;;
31798;SDS011;18374;51.136;3.502;2022-11-24T07:04:13;17.10;;;3.80;;
31798;SDS011;18374;51.136;3.502;2022-11-24T07:06:41;20.67;;;3.70;;
31798;SDS011;18374;51.136;3.502;2022-11-24T07:09:09;13.70;;;3.35;;
31798;SDS011;18374;51.136;3.502;2022-11-24T07:11:39;14.65;;;3.58;;
31798;SDS011;18374;51.136;3.502;2022-11-24T07:14:07;15.63;;;3.78;;
31798;SDS011;18374;51.136;3.502;2022-11-24T07:16:35;9.57;;;3.25;;
31798;SDS011;18374;51.136;3.502;2022-11-24T07:19:04;14.73;;;3.05;;
31798;SDS011;18374;51.136;3.502;2022-11-24T07:21:32;15.88;;;3.15;;
31798;SDS011;18374;51.136;3.502;2022-11-24T07:23:59;18.42;;;3.42;;
31798;SDS011;18374;51.136;3.502;2022-11-24T07:26:27;16.00;;;3.88;;
31798;SDS011;18374;51.136;3.502;2022-11-24T07:28:55;16.55;;;4.05;;
31798;SDS011;18374;51.136;3.502;2022-11-24T07:31:23;17.52;;;4.78;;
31798;SDS011;18374;51.136;3.502;2022-11-24T07:33:51;13.95;;;4.30;;
31798;SDS011;18374;51.136;3.502;2022-11-24T07:36:21;16.38;;;3.33;;
31798;SDS011;18374;51.136;3.502;2022-11-24T07:38:49;14.38;;;4.60;;
31798;SDS011;18374;51.136;3.502;2022-11-24T07:41:18;18.08;;;3.55;;
31798;SDS011;18374;51.136;3.502;2022-11-24T07:43:46;10.02;;;3.35;;
31798;SDS011;18374;51.136;3.502;2022-11-24T07:46:16;13.65;;;3.60;;
31798;SDS011;18374;51.136;3.502;2022-11-24T07:48:45;12.07;;;2.67;;
31798;SDS011;18374;51.136;3.502;2022-11-24T07:51:13;11.93;;;2.42;;
31798;SDS011;18374;51.136;3.502;2022-11-24T07:53:41;13.77;;;2.67;;
31798;SDS011;18374;51.136;3.502;2022-11-24T07:56:10;11.65;;;2.58;;
31798;SDS011;18374;51.136;3.502;2022-11-24T07:58:38;15.48;;;2.72;;
31798;SDS011;18374;51.136;3.502;2022-11-24T08:01:13;14.55;;;2.65;;
31798;SDS011;18374;51.136;3.502;2022-11-24T08:03:44;14.25;;;2.78;;
31798;SDS011;18374;51.136;3.502;2022-11-24T08:06:12;21.25;;;2.83;;
31798;SDS011;18374;51.136;3.502;2022-11-24T08:08:52;10.75;;;2.85;;
31798;SDS011;18374;51.136;3.502;2022-11-24T08:11:20;9.32;;;2.80;;
31798;SDS011;18374;51.136;3.502;2022-11-24T08:13:48;12.20;;;2.83;;
31798;SDS011;18374;51.136;3.502;2022-11-24T08:16:16;16.15;;;2.58;;
31798;SDS011;18374;51.136;3.502;2022-11-24T08:18:49;8.70;;;2.53;;
31798;SDS011;18374;51.136;3.502;2022-11-24T08:21:19;21.60;;;3.28;;
31798;SDS011;18374;51.136;3.502;2022-11-24T08:23:52;8.50;;;3.15;;
31798;SDS011;18374;51.136;3.502;2022-11-24T08:26:24;11.43;;;3.65;;
31798;SDS011;18374;51.136;3.502;2022-11-24T08:28:53;14.23;;;2.80;;
31798;SDS011;18374;51.136;3.502;2022-11-24T08:31:25;32.20;;;3.78;;
31798;SDS011;18374;51.136;3.502;2022-11-24T08:34:03;11.20;;;3.58;;
31798;SDS011;18374;51.136;3.502;2022-11-24T08:36:31;14.25;;;3.30;;
31798;SDS011;18374;51.136;3.502;2022-11-24T08:39:00;13.02;;;3.35;;
31798;SDS011;18374;51.136;3.502;2022-11-24T08:41:29;14.38;;;3.60;;
31798;SDS011;18374;51.136;3.502;2022-11-24T08:43:57;9.40;;;3.33;;
31798;SDS011;18374;51.136;3.502;2022-11-24T08:46:25;11.35;;;3.08;;
31798;SDS011;18374;51.136;3.502;2022-11-24T08:48:53;11.73;;;2.78;;
31798;SDS011;18374;51.136;3.502;2022-11-24T08:51:23;12.63;;;3.10;;
31798;SDS011;18374;51.136;3.502;2022-11-24T08:53:53;15.27;;;3.55;;
31798;SDS011;18374;51.136;3.502;2022-11-24T08:56:23;13.93;;;3.35;;
31798;SDS011;18374;51.136;3.502;2022-11-24T08:58:52;18.02;;;3.90;;
31798;SDS011;18374;51.136;3.502;2022-11-24T09:01:21;14.95;;;3.63;;
31798;SDS011;18374;51.136;3.502;2022-11-24T09:03:49;19.73;;;3.83;;
31798;SDS011;18374;51.136;3.502;2022-11-24T09:06:18;11.68;;;3.30;;
31798;SDS011;18374;51.136;3.502;2022-11-24T09:08:52;12.75;;;3.13;;
31798;SDS011;18374;51.136;3.502;2022-11-24T09:11:22;10.35;;;3.60;;
31798;SDS011;18374;51.136;3.502;2022-11-24T09:13:50;15.57;;;3.72;;
31798;SDS011;18374;51.136;3.502;2022-11-24T09:16:20;19.52;;;3.55;;
31798;SDS011;18374;51.136;3.502;2022-11-24T09:18:55;11.73;;;3.45;;
31798;SDS011;18374;51.136;3.502;2022-11-24T09:21:29;12.00;;;3.40;;
31798;SDS011;18374;51.136;3.502;2022-11-24T09:24:00;12.98;;;4.53;;
31798;SDS011;18374;51.136;3.502;2022-11-24T09:26:28;16.70;;;4.50;;
31798;SDS011;18374;51.136;3.502;2022-11-24T09:28:59;20.35;;;5.07;;
31798;SDS011;18374;51.136;3.502;2022-11-24T09:31:29;12.98;;;3.65;;
31798;SDS011;18374;51.136;3.502;2022-11-24T09:34:01;17.38;;;3.90;;
31798;SDS011;18374;51.136;3.502;2022-11-24T09:36:30;12.25;;;3.92;;
31798;SDS011;18374;51.136;3.502;2022-11-24T09:38:58;18.92;;;4.30;;
31798;SDS011;18374;51.136;3.502;2022-11-24T09:47:50;21.10;;;4.20;;
31798;SDS011;18374;51.136;3.502;2022-11-24T09:50:37;16.30;;;3.40;;
31798;SDS011;18374;51.136;3.502;2022-11-24T09:55:46;17.40;;;3.78;;
31798;SDS011;18374;51.136;3.502;2022-11-24T10:01:32;15.80;;;3.70;;
31798;SDS011;18374;51.136;3.502;2022-11-24T10:04:03;15.07;;;3.53;;
31798;SDS011;18374;51.136;3.502;2022-11-24T10:06:44;18.85;;;3.95;;
31798;SDS011;18374;51.136;3.502;2022-11-24T10:09:23;11.20;;;2.97;;
31798;SDS011;18374;51.136;3.502;2022-11-24T10:18:29;17.30;;;2.95;;
31798;SDS011;18374;51.136;3.502;2022-11-24T10:21:28;21.00;;;3.55;;
31798;SDS011;18374;51.136;3.502;2022-11-24T10:29:41;15.63;;;3.47;;
31798;SDS011;18374;51.136;3.502;2022-11-24T10:32:14;17.00;;;3.22;;
31798;SDS011;18374;51.136;3.502;2022-11-24T10:35:05;23.10;;;3.90;;
31798;SDS011;18374;51.136;3.502;2022-11-24T10:37:56;17.02;;;3.65;;
31798;SDS011;18374;51.136;3.502;2022-11-24T10:40:51;16.92;;;3.13;;
31798;SDS011;18374;51.136;3.502;2022-11-24T10:43:26;14.23;;;3.33;;
31798;SDS011;18374;51.136;3.502;2022-11-24T10:46:07;16.65;;;3.75;;
31798;SDS011;18374;51.136;3.502;2022-11-24T10:49:05;17.65;;;3.75;;
31798;SDS011;18374;51.136;3.502;2022-11-24T10:51:50;26.27;;;3.95;;
31798;SDS011;18374;51.136;3.502;2022-11-24T10:54:58;17.65;;;3.90;;
31798;SDS011;18374;51.136;3.502;2022-11-24T11:00:03;14.05;;;2.97;;
31798;SDS011;18374;51.136;3.502;2022-11-24T11:03:16;21.10;;;3.30;;
31798;SDS011;18374;51.136;3.502;2022-11-24T11:11:12;15.38;;;2.92;;
31798;SDS011;18374;51.136;3.502;2022-11-24T11:13:56;15.70;;;2.70;;
31798;SDS011;18374;51.136;3.502;2022-11-24T11:19:05;12.63;;;3.05;;
31798;SDS011;18374;51.136;3.502;2022-11-24T11:22:19;19.25;;;3.90;;
31798;SDS011;18374;51.136;3.502;2022-11-24T11:27:36;19.65;;;3.58;;
31798;SDS011;18374;51.136;3.502;2022-11-24T11:30:19;15.00;;;2.80;;
31798;SDS011;18374;51.136;3.502;2022-11-24T11:33:18;22.67;;;2.88;;
31798;SDS011;18374;51.136;3.502;2022-11-24T11:36:12;14.10;;;3.25;;
31798;SDS011;18374;51.136;3.502;2022-11-24T11:38:41;19.75;;;3.58;;
31798;SDS011;18374;51.136;3.502;2022-11-24T11:41:13;20.77;;;3.20;;
31798;SDS011;18374;51.136;3.502;2022-11-24T11:43:58;14.27;;;2.13;;
31798;SDS011;18374;51.136;3.502;2022-11-24T11:46:36;17.17;;;2.60;;
31798;SDS011;18374;51.136;3.502;2022-11-24T11:49:04;19.95;;;2.67;;
31798;SDS011;18374;51.136;3.502;2022-11-24T11:57:10;16.05;;;2.72;;
31798;SDS011;18374;51.136;3.502;2022-11-24T12:05:46;17.63;;;3.25;;
31798;SDS011;18374;51.136;3.502;2022-11-24T12:17:46;15.23;;;2.88;;
31798;SDS011;18374;51.136;3.502;2022-11-24T12:21:15;10.27;;;3.05;;
31798;SDS011;18374;51.136;3.502;2022-11-24T12:26:45;13.45;;;2.85;;
31798;SDS011;18374;51.136;3.502;2022-11-24T12:47:19;14.48;;;2.60;;
31798;SDS011;18374;51.136;3.502;2022-11-24T12:52:49;12.65;;;2.22;;
31798;SDS011;18374;51.136;3.502;2022-11-24T12:55:25;11.43;;;2.65;;
31798;SDS011;18374;51.136;3.502;2022-11-24T12:58:02;14.90;;;3.05;;
31798;SDS011;18374;51.136;3.502;2022-11-24T13:06:51;16.77;;;3.03;;
31798;SDS011;18374;51.136;3.502;2022-11-24T13:09:24;24.60;;;3.42;;
31798;SDS011;18374;51.136;3.502;2022-11-24T13:11:52;21.30;;;3.65;;
31798;SDS011;18374;51.136;3.502;2022-11-24T13:14:32;13.70;;;2.50;;
31798;SDS011;18374;51.136;3.502;2022-11-24T13:17:23;21.60;;;3.17;;
31798;SDS011;18374;51.136;3.502;2022-11-24T13:22:55;19.02;;;3.53;;
31798;SDS011;18374;51.136;3.502;2022-11-24T13:25:28;18.50;;;2.25;;
31798;SDS011;18374;51.136;3.502;2022-11-24T13:28:02;19.02;;;2.63;;
31798;SDS011;18374;51.136;3.502;2022-11-24T13:49:55;16.20;;;2.65;;
31798;SDS011;18374;51.136;3.502;2022-11-24T13:52:40;12.45;;;2.83;;
31798;SDS011;18374;51.136;3.502;2022-11-24T13:57:43;20.58;;;3.58;;
31798;SDS011;18374;51.136;3.502;2022-11-24T14:00:23;18.33;;;3.85;;
31798;SDS011;18374;51.136;3.502;2022-11-24T14:06:05;18.65;;;3.00;;
31798;SDS011;18374;51.136;3.502;2022-11-24T14:08:41;17.33;;;3.50;;
31798;SDS011;18374;51.136;3.502;2022-11-24T14:11:14;17.15;;;3.25;;
31798;SDS011;18374;51.136;3.502;2022-11-24T14:13:44;19.17;;;3.10;;
31798;SDS011;18374;51.136;3.502;2022-11-24T14:18:45;14.80;;;2.35;;
31798;SDS011;18374;51.136;3.502;2022-11-24T14:23:48;17.98;;;3.17;;
31798;SDS011;18374;51.136;3.502;2022-11-24T14:26:23;16.58;;;2.75;;
31798;SDS011;18374;51.136;3.502;2022-11-24T14:28:51;21.23;;;2.90;;
31798;SDS011;18374;51.136;3.502;2022-11-24T14:31:22;16.67;;;3.50;;
31798;SDS011;18374;51.136;3.502;2022-11-24T14:34:06;20.17;;;3.35;;
31798;SDS011;18374;51.136;3.502;2022-11-24T14:36:38;19.05;;;3.33;;
31798;SDS011;18374;51.136;3.502;2022-11-24T14:39:10;16.42;;;3.13;;
31798;SDS011;18374;51.136;3.502;2022-11-24T14:41:41;19.38;;;3.60;;
31798;SDS011;18374;51.136;3.502;2022-11-24T14:44:21;19.13;;;4.22;;
31798;SDS011;18374;51.136;3.502;2022-11-24T14:47:02;21.77;;;3.80;;
31798;SDS011;18374;51.136;3.502;2022-11-24T14:49:57;16.42;;;3.65;;
31798;SDS011;18374;51.136;3.502;2022-11-24T14:52:55;14.27;;;2.40;;
31798;SDS011;18374;51.136;3.502;2022-11-24T14:55:26;20.52;;;5.10;;
31798;SDS011;18374;51.136;3.502;2022-11-24T14:57:58;14.43;;;2.55;;
31798;SDS011;18374;51.136;3.502;2022-11-24T15:00:27;16.90;;;3.10;;
31798;SDS011;18374;51.136;3.502;2022-11-24T15:08:24;19.63;;;2.90;;
31798;SDS011;18374;51.136;3.502;2022-11-24T15:11:04;17.20;;;2.35;;
31798;SDS011;18374;51.136;3.502;2022-11-24T15:13:34;15.50;;;2.42;;
31798;SDS011;18374;51.136;3.502;2022-11-24T15:16:05;25.52;;;3.15;;
31798;SDS011;18374;51.136;3.502;2022-11-24T15:18:42;19.60;;;3.22;;
31798;SDS011;18374;51.136;3.502;2022-11-24T15:21:13;22.40;;;3.08;;
31798;SDS011;18374;51.136;3.502;2022-11-24T15:24:03;16.55;;;2.70;;
31798;SDS011;18374;51.136;3.502;2022-11-24T15:26:45;13.00;;;2.55;;
31798;SDS011;18374;51.136;3.502;2022-11-24T15:29:12;15.63;;;3.03;;
31798;SDS011;18374;51.136;3.502;2022-11-24T15:31:40;24.02;;;3.08;;
31798;SDS011;18374;51.136;3.502;2022-11-24T15:34:16;13.35;;;3.15;;
31798;SDS011;18374;51.136;3.502;2022-11-24T15:36:44;17.02;;;2.63;;
31798;SDS011;18374;51.136;3.502;2022-11-24T15:39:11;13.10;;;3.30;;
31798;SDS011;18374;51.136;3.502;2022-11-24T15:41:39;17.27;;;3.30;;
31798;SDS011;18374;51.136;3.502;2022-11-24T15:44:08;28.35;;;3.88;;
31798;SDS011;18374;51.136;3.502;2022-11-24T15:46:36;14.13;;;2.85;;
31798;SDS011;18374;51.136;3.502;2022-11-24T15:49:05;17.73;;;3.28;;
31798;SDS011;18374;51.136;3.502;2022-11-24T15:51:33;16.85;;;3.42;;
31798;SDS011;18374;51.136;3.502;2022-11-24T15:54:07;26.63;;;3.42;;
31798;SDS011;18374;51.136;3.502;2022-11-24T15:56:42;17.80;;;4.05;;
31798;SDS011;18374;51.136;3.502;2022-11-24T15:59:12;17.63;;;2.67;;
31798;SDS011;18374;51.136;3.502;2022-11-24T16:01:46;18.90;;;4.07;;
31798;SDS011;18374;51.136;3.502;2022-11-24T16:04:16;17.83;;;2.72;;
31798;SDS011;18374;51.136;3.502;2022-11-24T16:06:44;17.08;;;3.08;;
31798;SDS011;18374;51.136;3.502;2022-11-24T16:09:13;21.52;;;3.53;;
31798;SDS011;18374;51.136;3.502;2022-11-24T16:11:42;17.92;;;3.30;;
31798;SDS011;18374;51.136;3.502;2022-11-24T16:14:10;20.67;;;3.17;;
31798;SDS011;18374;51.136;3.502;2022-11-24T16:16:38;23.13;;;4.13;;
31798;SDS011;18374;51.136;3.502;2022-11-24T16:19:07;23.27;;;3.22;;
31798;SDS011;18374;51.136;3.502;2022-11-24T16:21:36;19.58;;;3.50;;
31798;SDS011;18374;51.136;3.502;2022-11-24T16:24:04;15.23;;;3.20;;
31798;SDS011;18374;51.136;3.502;2022-11-24T16:26:32;25.00;;;3.40;;
31798;SDS011;18374;51.136;3.502;2022-11-24T16:29:00;24.88;;;4.03;;
31798;SDS011;18374;51.136;3.502;2022-11-24T16:31:27;23.05;;;4.03;;
31798;SDS011;18374;51.136;3.502;2022-11-24T16:33:55;23.63;;;4.10;;
31798;SDS011;18374;51.136;3.502;2022-11-24T16:36:23;17.65;;;2.63;;
31798;SDS011;18374;51.136;3.502;2022-11-24T16:38:51;18.95;;;3.45;;
31798;SDS011;18374;51.136;3.502;2022-11-24T16:41:18;23.83;;;5.10;;
31798;SDS011;18374;51.136;3.502;2022-11-24T16:43:47;21.40;;;3.60;;
31798;SDS011;18374;51.136;3.502;2022-11-24T16:46:16;23.42;;;3.10;;
31798;SDS011;18374;51.136;3.502;2022-11-24T16:48:48;19.98;;;3.67;;
31798;SDS011;18374;51.136;3.502;2022-11-24T16:51:19;20.00;;;3.38;;
31798;SDS011;18374;51.136;3.502;2022-11-24T16:53:55;21.92;;;3.88;;
31798;SDS011;18374;51.136;3.502;2022-11-24T16:56:25;17.45;;;2.97;;
31798;SDS011;18374;51.136;3.502;2022-11-24T16:58:54;12.63;;;2.47;;
31798;SDS011;18374;51.136;3.502;2022-11-24T17:01:22;19.10;;;3.55;;
31798;SDS011;18374;51.136;3.502;2022-11-24T17:03:52;15.68;;;2.92;;
31798;SDS011;18374;51.136;3.502;2022-11-24T17:06:19;13.43;;;2.80;;
31798;SDS011;18374;51.136;3.502;2022-11-24T17:08:47;16.63;;;2.90;;
31798;SDS011;18374;51.136;3.502;2022-11-24T17:11:21;15.70;;;2.72;;
31798;SDS011;18374;51.136;3.502;2022-11-24T17:13:50;15.88;;;3.15;;
31798;SDS011;18374;51.136;3.502;2022-11-24T17:16:20;25.10;;;3.10;;
31798;SDS011;18374;51.136;3.502;2022-11-24T17:18:49;20.17;;;3.55;;
31798;SDS011;18374;51.136;3.502;2022-11-24T17:21:18;21.92;;;3.72;;
31798;SDS011;18374;51.136;3.502;2022-11-24T17:23:55;15.43;;;3.65;;